sensor_id;sensor_type;location;lat;lon;timestamp;pressure;altitude;pressure_sealevel;temperature;humidity
52319;BME280;38258;51.148;14.068;2023-06-14T00:00:23;98282.97;;;9.70;100.00
52319;BME280;38258;51.148;14.068;2023-06-14T00:02:50;98286.34;;;9.75;100.00
52319;BME280;38258;51.148;14.068;2023-06-14T00:05:18;98294.31;;;9.69;100.00
52319;BME280;38258;51.148;14.068;2023-06-14T00:07:45;98291.28;;;9.85;100.00
52319;BME280;38258;51.148;14.068;2023-06-14T00:10:14;98286.13;;;9.83;100.00
52319;BME280;38258;51.148;14.068;2023-06-14T00:12:41;98289.78;;;9.76;100.00
52319;BME280;38258;51.148;14.068;2023-06-14T00:15:08;98283.56;;;9.80;100.00
52319;BME280;38258;51.148;14.068;2023-06-14T00:17:35;98287.16;;;9.78;100.00
52319;BME280;38258;51.148;14.068;2023-06-14T00:20:05;98286.25;;;9.79;100.00
52319;BME280;38258;51.148;14.068;2023-06-14T00:22:34;98285.38;;;9.78;100.00
52319;BME280;38258;51.148;14.068;2023-06-14T00:25:02;98288.03;;;9.76;100.00
52319;BME280;38258;51.148;14.068;2023-06-14T00:27:29;98279.53;;;9.68;100.00
52319;BME280;38258;51.148;14.068;2023-06-14T00:29:55;98279.50;;;9.70;100.00
52319;BME280;38258;51.148;14.068;2023-06-14T00:32:25;98291.78;;;9.66;100.00
52319;BME280;38258;51.148;14.068;2023-06-14T00:34:55;98285.66;;;9.67;100.00
52319;BME280;38258;51.148;14.068;2023-06-14T00:37:22;98280.56;;;9.62;100.00
52319;BME280;38258;51.148;14.068;2023-06-14T00:39:50;98284.97;;;9.60;100.00
52319;BME280;38258;51.148;14.068;2023-06-14T00:42:25;98284.97;;;9.60;100.00
52319;BME280;38258;51.148;14.068;2023-06-14T00:44:51;98283.38;;;9.55;100.00
52319;BME280;38258;51.148;14.068;2023-06-14T00:47:18;98283.38;;;9.55;100.00
52319;BME280;38258;51.148;14.068;2023-06-14T00:49:47;98275.84;;;9.42;100.00
52319;BME280;38258;51.148;14.068;2023-06-14T00:52:15;98275.16;;;9.36;100.00
52319;BME280;38258;51.148;14.068;2023-06-14T00:54:42;98272.44;;;9.39;100.00
52319;BME280;38258;51.148;14.068;2023-06-14T00:57:12;98268.00;;;9.42;100.00
52319;BME280;38258;51.148;14.068;2023-06-14T00:59:43;98268.97;;;9.40;100.00
52319;BME280;38258;51.148;14.068;2023-06-14T01:02:10;98266.69;;;9.26;100.00
52319;BME280;38258;51.148;14.068;2023-06-14T01:04:39;98271.38;;;9.13;100.00
52319;BME280;38258;51.148;14.068;2023-06-14T01:07:12;98265.28;;;9.12;100.00
52319;BME280;38258;51.148;14.068;2023-06-14T01:09:51;98261.66;;;9.18;100.00
52319;BME280;38258;51.148;14.068;2023-06-14T01:12:31;98263.50;;;9.14;100.00
52319;BME280;38258;51.148;14.068;2023-06-14T01:15:01;98268.25;;;8.98;100.00
52319;BME280;38258;51.148;14.068;2023-06-14T01:17:29;98264.13;;;8.88;100.00
52319;BME280;38258;51.148;14.068;2023-06-14T01:19:58;98259.94;;;8.81;100.00
52319;BME280;38258;51.148;14.068;2023-06-14T01:22:26;98267.03;;;8.74;100.00
52319;BME280;38258;51.148;14.068;2023-06-14T01:24:56;98257.31;;;8.81;100.00
52319;BME280;38258;51.148;14.068;2023-06-14T01:27:23;98267.28;;;8.63;100.00
52319;BME280;38258;51.148;14.068;2023-06-14T01:29:54;98265.88;;;8.46;100.00
52319;BME280;38258;51.148;14.068;2023-06-14T01:32:24;98261.72;;;8.38;100.00
52319;BME280;38258;51.148;14.068;2023-06-14T01:34:51;98267.75;;;8.41;100.00
52319;BME280;38258;51.148;14.068;2023-06-14T01:37:19;98271.25;;;8.39;100.00
52319;BME280;38258;51.148;14.068;2023-06-14T01:39:47;98271.59;;;8.21;100.00
52319;BME280;38258;51.148;14.068;2023-06-14T01:42:20;98266.41;;;8.21;100.00
52319;BME280;38258;51.148;14.068;2023-06-14T01:44:47;98270.59;;;8.29;100.00
52319;BME280;38258;51.148;14.068;2023-06-14T01:47:14;98270.75;;;8.21;100.00
52319;BME280;38258;51.148;14.068;2023-06-14T01:49:41;98269.66;;;8.31;100.00
52319;BME280;38258;51.148;14.068;2023-06-14T01:52:08;98269.00;;;8.21;100.00
52319;BME280;38258;51.148;14.068;2023-06-14T01:54:36;98261.75;;;8.36;100.00
52319;BME280;38258;51.148;14.068;2023-06-14T01:57:07;98261.50;;;8.48;100.00
52319;BME280;38258;51.148;14.068;2023-06-14T01:59:38;98262.41;;;8.46;100.00
52319;BME280;38258;51.148;14.068;2023-06-14T02:02:04;98264.09;;;8.50;100.00
52319;BME280;38258;51.148;14.068;2023-06-14T02:04:31;98272.66;;;8.57;100.00
52319;BME280;38258;51.148;14.068;2023-06-14T02:06:58;98264.16;;;8.47;100.00
52319;BME280;38258;51.148;14.068;2023-06-14T02:09:25;98263.22;;;8.51;100.00
52319;BME280;38258;51.148;14.068;2023-06-14T02:11:53;98266.88;;;8.39;100.00
52319;BME280;38258;51.148;14.068;2023-06-14T02:14:20;98268.47;;;8.48;100.00
52319;BME280;38258;51.148;14.068;2023-06-14T02:16:49;98268.63;;;8.40;100.00
52319;BME280;38258;51.148;14.068;2023-06-14T02:19:16;98268.25;;;8.16;100.00
52319;BME280;38258;51.148;14.068;2023-06-14T02:21:43;98271.00;;;8.09;100.00
52319;BME280;38258;51.148;14.068;2023-06-14T02:24:12;98260.53;;;8.10;100.00
52319;BME280;38258;51.148;14.068;2023-06-14T02:26:39;98260.44;;;8.15;100.00
52319;BME280;38258;51.148;14.068;2023-06-14T02:29:06;98264.09;;;8.06;100.00
52319;BME280;38258;51.148;14.068;2023-06-14T02:31:36;98266.84;;;8.00;100.00
52319;BME280;38258;51.148;14.068;2023-06-14T02:34:04;98266.91;;;7.97;100.00
52319;BME280;38258;51.148;14.068;2023-06-14T02:36:31;98266.94;;;7.93;100.00
52319;BME280;38258;51.148;14.068;2023-06-14T02:38:59;98273.94;;;7.91;100.00
52319;BME280;38258;51.148;14.068;2023-06-14T02:41:26;98273.09;;;7.91;100.00
52319;BME280;38258;51.148;14.068;2023-06-14T02:43:53;98278.41;;;7.85;100.00
52319;BME280;38258;51.148;14.068;2023-06-14T02:46:21;98269.63;;;7.90;100.00
52319;BME280;38258;51.148;14.068;2023-06-14T02:48:49;98280.13;;;7.86;100.00
52319;BME280;38258;51.148;14.068;2023-06-14T02:51:17;98284.28;;;7.95;100.00
52319;BME280;38258;51.148;14.068;2023-06-14T02:53:44;98289.69;;;7.85;100.00
52319;BME280;38258;51.148;14.068;2023-06-14T02:56:11;98286.28;;;7.83;100.00
52319;BME280;38258;51.148;14.068;2023-06-14T02:58:39;98280.16;;;7.84;100.00
52319;BME280;38258;51.148;14.068;2023-06-14T03:01:07;98278.34;;;7.88;100.00
52319;BME280;38258;51.148;14.068;2023-06-14T03:03:34;98283.53;;;7.91;100.00
52319;BME280;38258;51.148;14.068;2023-06-14T03:06:01;98287.03;;;7.87;100.00
52319;BME280;38258;51.148;14.068;2023-06-14T03:08:33;98281.25;;;8.18;100.00
52319;BME280;38258;51.148;14.068;2023-06-14T03:11:07;98290.41;;;8.36;100.00
52319;BME280;38258;51.148;14.068;2023-06-14T03:13:35;98290.41;;;8.36;100.00
52319;BME280;38258;51.148;14.068;2023-06-14T03:16:04;98286.03;;;8.38;100.00
52319;BME280;38258;51.148;14.068;2023-06-14T03:18:35;98292.13;;;8.37;100.00
52319;BME280;38258;51.148;14.068;2023-06-14T03:21:04;98290.34;;;8.39;100.00
52319;BME280;38258;51.148;14.068;2023-06-14T03:23:33;98289.28;;;8.49;100.00
52319;BME280;38258;51.148;14.068;2023-06-14T03:26:02;98288.38;;;8.52;100.00
52319;BME280;38258;51.148;14.068;2023-06-14T03:28:29;98283.41;;;8.40;100.00
52319;BME280;38258;51.148;14.068;2023-06-14T03:30:57;98284.06;;;8.49;100.00
52319;BME280;38258;51.148;14.068;2023-06-14T03:33:25;98290.22;;;8.45;100.00
52319;BME280;38258;51.148;14.068;2023-06-14T03:35:51;98293.66;;;8.47;100.00
52319;BME280;38258;51.148;14.068;2023-06-14T03:38:18;98293.72;;;8.44;100.00
52319;BME280;38258;51.148;14.068;2023-06-14T03:40:47;98304.97;;;8.48;100.00
52319;BME280;38258;51.148;14.068;2023-06-14T03:43:13;98303.25;;;8.47;100.00
52319;BME280;38258;51.148;14.068;2023-06-14T03:45:41;98310.97;;;8.52;100.00
52319;BME280;38258;51.148;14.068;2023-06-14T03:48:09;98314.28;;;8.60;100.00
52319;BME280;38258;51.148;14.068;2023-06-14T03:50:36;98310.69;;;8.66;100.00
52319;BME280;38258;51.148;14.068;2023-06-14T03:53:06;98308.19;;;8.61;100.00
52319;BME280;38258;51.148;14.068;2023-06-14T03:55:34;98318.47;;;8.67;100.00
52319;BME280;38258;51.148;14.068;2023-06-14T03:58:04;98313.31;;;8.66;100.00
52319;BME280;38258;51.148;14.068;2023-06-14T04:00:31;98323.50;;;8.76;100.00
52319;BME280;38258;51.148;14.068;2023-06-14T04:02:58;98324.38;;;8.77;100.00
52319;BME280;38258;51.148;14.068;2023-06-14T04:05:25;98319.25;;;8.72;100.00
52319;BME280;38258;51.148;14.068;2023-06-14T04:07:54;98325.97;;;8.83;100.00
52319;BME280;38258;51.148;14.068;2023-06-14T04:10:21;98326.72;;;8.88;100.00
52319;BME280;38258;51.148;14.068;2023-06-14T04:12:48;98334.47;;;8.91;100.00
52319;BME280;38258;51.148;14.068;2023-06-14T04:15:18;98339.31;;;9.08;100.00
52319;BME280;38258;51.148;14.068;2023-06-14T04:17:44;98344.47;;;9.10;100.00
52319;BME280;38258;51.148;14.068;2023-06-14T04:20:11;98340.81;;;9.18;100.00
52319;BME280;38258;51.148;14.068;2023-06-14T04:22:38;98346.88;;;9.19;100.00
52319;BME280;38258;51.148;14.068;2023-06-14T04:25:07;98344.88;;;9.30;100.00
52319;BME280;38258;51.148;14.068;2023-06-14T04:27:34;98340.47;;;9.34;100.00
52319;BME280;38258;51.148;14.068;2023-06-14T04:30:03;98339.56;;;9.35;100.00
52319;BME280;38258;51.148;14.068;2023-06-14T04:32:37;98342.13;;;9.37;100.00
52319;BME280;38258;51.148;14.068;2023-06-14T04:35:06;98335.34;;;9.29;100.00
52319;BME280;38258;51.148;14.068;2023-06-14T04:37:34;98347.41;;;9.35;100.00
52319;BME280;38258;51.148;14.068;2023-06-14T04:40:07;98339.06;;;9.55;100.00
52319;BME280;38258;51.148;14.068;2023-06-14T04:42:36;98341.59;;;9.58;100.00
52319;BME280;38258;51.148;14.068;2023-06-14T04:45:07;98339.78;;;9.62;100.00
52319;BME280;38258;51.148;14.068;2023-06-14T04:47:37;98339.25;;;9.82;100.00
52319;BME280;38258;51.148;14.068;2023-06-14T04:50:06;98350.34;;;9.90;100.00
52319;BME280;38258;51.148;14.068;2023-06-14T04:52:34;98350.00;;;10.04;100.00
52319;BME280;38258;51.148;14.068;2023-06-14T04:55:01;98358.72;;;10.03;100.00
52319;BME280;38258;51.148;14.068;2023-06-14T04:57:29;98365.88;;;10.30;100.00
52319;BME280;38258;51.148;14.068;2023-06-14T04:59:58;98359.31;;;10.48;100.00
52319;BME280;38258;51.148;14.068;2023-06-14T05:02:28;98352.22;;;10.52;100.00
52319;BME280;38258;51.148;14.068;2023-06-14T05:04:58;98361.06;;;10.78;100.00
52319;BME280;38258;51.148;14.068;2023-06-14T05:07:27;98359.16;;;10.83;100.00
52319;BME280;38258;51.148;14.068;2023-06-14T05:09:54;98360.66;;;10.92;100.00
52319;BME280;38258;51.148;14.068;2023-06-14T05:12:20;98368.44;;;10.93;100.00
52319;BME280;38258;51.148;14.068;2023-06-14T05:14:48;98374.38;;;11.28;100.00
52319;BME280;38258;51.148;14.068;2023-06-14T05:17:21;98378.41;;;11.66;100.00
52319;BME280;38258;51.148;14.068;2023-06-14T05:19:47;98385.16;;;11.17;100.00
52319;BME280;38258;51.148;14.068;2023-06-14T05:22:15;98379.16;;;11.42;100.00
52319;BME280;38258;51.148;14.068;2023-06-14T05:24:42;98384.41;;;11.42;100.00
52319;BME280;38258;51.148;14.068;2023-06-14T05:27:09;98384.47;;;11.41;100.00
52319;BME280;38258;51.148;14.068;2023-06-14T05:29:36;98387.44;;;11.57;100.00
52319;BME280;38258;51.148;14.068;2023-06-14T05:32:03;98383.91;;;11.58;100.00
52319;BME280;38258;51.148;14.068;2023-06-14T05:34:30;98379.06;;;11.45;100.00
52319;BME280;38258;51.148;14.068;2023-06-14T05:36:57;98383.31;;;11.50;100.00
52319;BME280;38258;51.148;14.068;2023-06-14T05:39:25;98397.66;;;11.09;100.00
52319;BME280;38258;51.148;14.068;2023-06-14T05:41:52;98394.72;;;11.47;100.00
52319;BME280;38258;51.148;14.068;2023-06-14T05:44:19;98391.91;;;11.80;100.00
52319;BME280;38258;51.148;14.068;2023-06-14T05:46:45;98394.72;;;12.01;100.00
52319;BME280;38258;51.148;14.068;2023-06-14T05:49:12;98396.19;;;11.56;100.00
52319;BME280;38258;51.148;14.068;2023-06-14T05:51:39;98392.78;;;11.81;100.00
52319;BME280;38258;51.148;14.068;2023-06-14T05:54:06;98393.03;;;11.73;100.00
52319;BME280;38258;51.148;14.068;2023-06-14T05:56:34;98392.22;;;11.71;100.00
52319;BME280;38258;51.148;14.068;2023-06-14T05:59:00;98392.53;;;12.15;100.00
52319;BME280;38258;51.148;14.068;2023-06-14T06:01:27;98390.00;;;12.12;100.00
52319;BME280;38258;51.148;14.068;2023-06-14T06:03:54;98391.47;;;12.21;100.00
52319;BME280;38258;51.148;14.068;2023-06-14T06:06:21;98400.28;;;11.92;100.00
52319;BME280;38258;51.148;14.068;2023-06-14T06:08:48;98398.44;;;11.94;100.00
52319;BME280;38258;51.148;14.068;2023-06-14T06:11:15;98399.47;;;11.90;100.00
52319;BME280;38258;51.148;14.068;2023-06-14T06:13:43;98400.59;;;12.35;100.00
52319;BME280;38258;51.148;14.068;2023-06-14T06:16:10;98392.91;;;12.30;100.00
52319;BME280;38258;51.148;14.068;2023-06-14T06:18:36;98408.03;;;12.71;100.00
52319;BME280;38258;51.148;14.068;2023-06-14T06:21:04;98403.63;;;12.95;100.00
52319;BME280;38258;51.148;14.068;2023-06-14T06:23:31;98399.72;;;12.83;100.00
52319;BME280;38258;51.148;14.068;2023-06-14T06:25:57;98403.19;;;12.60;100.00
52319;BME280;38258;51.148;14.068;2023-06-14T06:28:24;98404.09;;;12.83;100.00
52319;BME280;38258;51.148;14.068;2023-06-14T06:30:52;98400.84;;;13.00;100.00
52319;BME280;38258;51.148;14.068;2023-06-14T06:33:20;98407.09;;;13.20;100.00
52319;BME280;38258;51.148;14.068;2023-06-14T06:35:46;98407.47;;;13.33;100.00
52319;BME280;38258;51.148;14.068;2023-06-14T06:38:13;98416.28;;;13.32;100.00
52319;BME280;38258;51.148;14.068;2023-06-14T06:40:40;98418.53;;;13.41;100.00
52319;BME280;38258;51.148;14.068;2023-06-14T06:43:07;98419.81;;;13.31;100.00
52319;BME280;38258;51.148;14.068;2023-06-14T06:45:40;98421.09;;;13.87;100.00
52319;BME280;38258;51.148;14.068;2023-06-14T06:48:08;98419.53;;;13.83;100.00
52319;BME280;38258;51.148;14.068;2023-06-14T06:50:35;98425.88;;;13.99;100.00
52319;BME280;38258;51.148;14.068;2023-06-14T06:53:02;98422.13;;;14.05;100.00
52319;BME280;38258;51.148;14.068;2023-06-14T06:55:29;98411.78;;;14.42;100.00
52319;BME280;38258;51.148;14.068;2023-06-14T06:57:56;98414.03;;;14.31;100.00
52319;BME280;38258;51.148;14.068;2023-06-14T07:00:23;98418.38;;;14.11;100.00
52319;BME280;38258;51.148;14.068;2023-06-14T07:02:50;98413.88;;;14.34;100.00
52319;BME280;38258;51.148;14.068;2023-06-14T07:05:19;98417.94;;;14.62;100.00
52319;BME280;38258;51.148;14.068;2023-06-14T07:07:45;98423.03;;;14.46;100.00
52319;BME280;38258;51.148;14.068;2023-06-14T07:10:12;98427.84;;;15.16;100.00
52319;BME280;38258;51.148;14.068;2023-06-14T07:12:39;98430.34;;;14.80;100.00
52319;BME280;38258;51.148;14.068;2023-06-14T07:15:07;98429.09;;;14.27;100.00
52319;BME280;38258;51.148;14.068;2023-06-14T07:17:34;98441.59;;;15.22;100.00
52319;BME280;38258;51.148;14.068;2023-06-14T07:20:02;98427.78;;;15.36;100.00
52319;BME280;38258;51.148;14.068;2023-06-14T07:22:35;98441.22;;;15.30;100.00
52319;BME280;38258;51.148;14.068;2023-06-14T07:25:02;98442.72;;;14.97;100.00
52319;BME280;38258;51.148;14.068;2023-06-14T07:27:29;98448.16;;;15.13;100.00
52319;BME280;38258;51.148;14.068;2023-06-14T07:29:56;98439.75;;;15.24;100.00
52319;BME280;38258;51.148;14.068;2023-06-14T07:32:23;98437.81;;;14.90;100.00
52319;BME280;38258;51.148;14.068;2023-06-14T07:34:49;98430.34;;;14.80;100.00
52319;BME280;38258;51.148;14.068;2023-06-14T07:37:16;98447.06;;;15.37;100.00
52319;BME280;38258;51.148;14.068;2023-06-14T07:39:44;98446.28;;;15.54;100.00
52319;BME280;38258;51.148;14.068;2023-06-14T07:42:11;98447.63;;;15.63;95.00
52319;BME280;38258;51.148;14.068;2023-06-14T07:44:38;98441.66;;;16.49;93.62
52319;BME280;38258;51.148;14.068;2023-06-14T07:47:05;98438.00;;;15.99;91.44
52319;BME280;38258;51.148;14.068;2023-06-14T07:49:31;98442.72;;;15.92;95.70
52319;BME280;38258;51.148;14.068;2023-06-14T07:51:58;98448.16;;;15.33;93.57
52319;BME280;38258;51.148;14.068;2023-06-14T07:54:25;98444.28;;;15.40;98.02
52319;BME280;38258;51.148;14.068;2023-06-14T07:56:54;98450.56;;;15.37;96.75
52319;BME280;38258;51.148;14.068;2023-06-14T07:59:21;98449.84;;;15.34;96.52
52319;BME280;38258;51.148;14.068;2023-06-14T08:01:48;98456.97;;;14.93;94.12
52319;BME280;38258;51.148;14.068;2023-06-14T08:04:14;98459.16;;;15.60;92.84
52319;BME280;38258;51.148;14.068;2023-06-14T08:06:41;98454.47;;;15.48;93.22
52319;BME280;38258;51.148;14.068;2023-06-14T08:09:09;98471.50;;;15.21;91.57
52319;BME280;38258;51.148;14.068;2023-06-14T08:11:36;98477.81;;;15.55;92.41
52319;BME280;38258;51.148;14.068;2023-06-14T08:14:04;98479.56;;;16.30;85.54
52319;BME280;38258;51.148;14.068;2023-06-14T08:16:31;98472.94;;;16.39;81.53
52319;BME280;38258;51.148;14.068;2023-06-14T08:18:57;98470.28;;;17.08;84.21
52319;BME280;38258;51.148;14.068;2023-06-14T08:21:24;98473.63;;;17.28;81.36
52319;BME280;38258;51.148;14.068;2023-06-14T08:23:54;98476.75;;;17.02;78.08
52319;BME280;38258;51.148;14.068;2023-06-14T08:26:21;98474.84;;;17.38;79.96
52319;BME280;38258;51.148;14.068;2023-06-14T08:28:48;98475.25;;;18.56;70.64
52319;BME280;38258;51.148;14.068;2023-06-14T08:31:16;98481.06;;;18.32;65.38
52319;BME280;38258;51.148;14.068;2023-06-14T08:33:43;98472.53;;;16.64;70.44
52319;BME280;38258;51.148;14.068;2023-06-14T08:36:09;98488.84;;;16.55;74.37
52319;BME280;38258;51.148;14.068;2023-06-14T08:38:37;98480.69;;;16.60;77.77
52319;BME280;38258;51.148;14.068;2023-06-14T08:41:05;98477.66;;;16.67;77.38
52319;BME280;38258;51.148;14.068;2023-06-14T08:43:32;98477.59;;;16.34;75.40
52319;BME280;38258;51.148;14.068;2023-06-14T08:46:01;98474.50;;;16.94;73.03
52319;BME280;38258;51.148;14.068;2023-06-14T08:48:30;98471.94;;;16.24;77.40
52319;BME280;38258;51.148;14.068;2023-06-14T08:50:59;98477.97;;;17.13;77.14
52319;BME280;38258;51.148;14.068;2023-06-14T08:53:28;98465.41;;;16.49;73.96
52319;BME280;38258;51.148;14.068;2023-06-14T08:55:57;98464.56;;;16.82;77.66
52319;BME280;38258;51.148;14.068;2023-06-14T08:58:27;98457.09;;;16.04;77.32
52319;BME280;38258;51.148;14.068;2023-06-14T09:00:55;98462.91;;;16.28;78.19
52319;BME280;38258;51.148;14.068;2023-06-14T09:03:23;98456.84;;;17.61;73.24
52319;BME280;38258;51.148;14.068;2023-06-14T09:05:57;98455.59;;;18.74;65.49
52319;BME280;38258;51.148;14.068;2023-06-14T09:08:25;98460.22;;;16.81;67.21
52319;BME280;38258;51.148;14.068;2023-06-14T09:10:52;98466.75;;;17.73;70.19
52319;BME280;38258;51.148;14.068;2023-06-14T09:13:18;98469.28;;;17.10;65.97
52319;BME280;38258;51.148;14.068;2023-06-14T09:15:45;98473.22;;;17.19;72.67
52319;BME280;38258;51.148;14.068;2023-06-14T09:18:12;98460.72;;;17.05;68.22
52319;BME280;38258;51.148;14.068;2023-06-14T09:20:39;98466.53;;;17.12;68.36
52319;BME280;38258;51.148;14.068;2023-06-14T09:23:08;98471.06;;;18.06;65.91
52319;BME280;38258;51.148;14.068;2023-06-14T09:25:42;98472.88;;;18.51;64.38
52319;BME280;38258;51.148;14.068;2023-06-14T09:28:09;98471.22;;;17.07;64.49
52319;BME280;38258;51.148;14.068;2023-06-14T09:30:37;98463.84;;;18.84;61.35
52319;BME280;38258;51.148;14.068;2023-06-14T09:33:03;98475.75;;;18.01;61.15
52319;BME280;38258;51.148;14.068;2023-06-14T09:35:31;98470.38;;;19.78;58.49
52319;BME280;38258;51.148;14.068;2023-06-14T09:37:57;98466.06;;;19.63;59.64
52319;BME280;38258;51.148;14.068;2023-06-14T09:40:26;98468.78;;;20.70;56.47
52319;BME280;38258;51.148;14.068;2023-06-14T09:42:53;98460.19;;;19.85;55.42
52319;BME280;38258;51.148;14.068;2023-06-14T09:45:20;98471.81;;;18.08;60.78
52319;BME280;38258;51.148;14.068;2023-06-14T09:47:48;98473.63;;;18.53;63.48
52319;BME280;38258;51.148;14.068;2023-06-14T09:50:15;98478.41;;;17.85;64.17
52319;BME280;38258;51.148;14.068;2023-06-14T09:52:43;98467.72;;;20.06;60.52
52319;BME280;38258;51.148;14.068;2023-06-14T09:55:12;98470.63;;;22.07;54.30
52319;BME280;38258;51.148;14.068;2023-06-14T09:57:42;98466.97;;;20.70;53.97
52319;BME280;38258;51.148;14.068;2023-06-14T10:00:12;98477.41;;;20.60;55.02
52319;BME280;38258;51.148;14.068;2023-06-14T10:02:42;98473.81;;;21.00;52.51
52319;BME280;38258;51.148;14.068;2023-06-14T10:05:17;98466.56;;;20.63;57.85
52319;BME280;38258;51.148;14.068;2023-06-14T10:07:49;98475.09;;;19.88;59.15
52319;BME280;38258;51.148;14.068;2023-06-14T10:10:18;98461.66;;;23.02;51.45
52319;BME280;38258;51.148;14.068;2023-06-14T10:12:47;98454.75;;;20.68;53.43
52319;BME280;38258;51.148;14.068;2023-06-14T10:15:18;98463.13;;;21.26;53.55
52319;BME280;38258;51.148;14.068;2023-06-14T10:17:50;98469.72;;;20.69;58.50
52319;BME280;38258;51.148;14.068;2023-06-14T10:20:26;98477.75;;;18.88;60.58
52319;BME280;38258;51.148;14.068;2023-06-14T10:22:59;98478.34;;;17.55;70.79
52319;BME280;38258;51.148;14.068;2023-06-14T10:25:30;98477.31;;;17.73;73.53
52319;BME280;38258;51.148;14.068;2023-06-14T10:28:14;98470.84;;;17.31;78.57
52319;BME280;38258;51.148;14.068;2023-06-14T10:31:03;98475.50;;;17.09;81.47
52319;BME280;38258;51.148;14.068;2023-06-14T10:33:30;98479.19;;;18.03;79.69
52319;BME280;38258;51.148;14.068;2023-06-14T10:36:08;98475.28;;;17.46;78.76
52319;BME280;38258;51.148;14.068;2023-06-14T10:38:36;98473.56;;;17.77;78.26
52319;BME280;38258;51.148;14.068;2023-06-14T10:41:03;98468.41;;;17.10;83.20
52319;BME280;38258;51.148;14.068;2023-06-14T10:43:32;98472.88;;;17.26;82.08
52319;BME280;38258;51.148;14.068;2023-06-14T10:46:15;98465.69;;;17.28;82.07
52319;BME280;38258;51.148;14.068;2023-06-14T10:48:42;98475.84;;;17.19;82.72
52319;BME280;38258;51.148;14.068;2023-06-14T10:51:16;98472.63;;;17.78;81.16
52319;BME280;38258;51.148;14.068;2023-06-14T10:53:46;98462.97;;;16.95;83.33
52319;BME280;38258;51.148;14.068;2023-06-14T10:56:23;98465.88;;;17.73;81.93
52319;BME280;38258;51.148;14.068;2023-06-14T10:58:53;98467.75;;;17.87;79.58
52319;BME280;38258;51.148;14.068;2023-06-14T11:01:31;98462.75;;;18.13;81.57
52319;BME280;38258;51.148;14.068;2023-06-14T11:04:07;98459.47;;;18.83;77.40
52319;BME280;38258;51.148;14.068;2023-06-14T11:06:45;98463.53;;;18.74;75.69
52319;BME280;38258;51.148;14.068;2023-06-14T11:09:38;98470.25;;;17.42;82.51
52319;BME280;38258;51.148;14.068;2023-06-14T11:12:10;98470.84;;;17.47;84.64
52319;BME280;38258;51.148;14.068;2023-06-14T11:14:38;98460.28;;;18.09;79.22
52319;BME280;38258;51.148;14.068;2023-06-14T11:17:05;98462.78;;;18.58;79.89
52319;BME280;38258;51.148;14.068;2023-06-14T11:19:32;98463.84;;;19.28;75.42
52319;BME280;38258;51.148;14.068;2023-06-14T11:21:59;98463.34;;;18.18;78.99
52319;BME280;38258;51.148;14.068;2023-06-14T11:24:25;98466.63;;;18.37;80.95
52319;BME280;38258;51.148;14.068;2023-06-14T11:26:52;98455.28;;;19.10;75.99
52319;BME280;38258;51.148;14.068;2023-06-14T11:29:20;98459.69;;;18.94;75.99
52319;BME280;38258;51.148;14.068;2023-06-14T11:31:48;98455.00;;;19.56;72.35
52319;BME280;38258;51.148;14.068;2023-06-14T11:34:15;98455.50;;;18.61;74.55
52319;BME280;38258;51.148;14.068;2023-06-14T11:36:42;98460.25;;;17.79;78.70
52319;BME280;38258;51.148;14.068;2023-06-14T11:39:08;98463.31;;;17.39;83.70
52319;BME280;38258;51.148;14.068;2023-06-14T11:41:37;98461.66;;;17.85;87.15
52319;BME280;38258;51.148;14.068;2023-06-14T11:44:04;98458.47;;;19.00;78.76
52319;BME280;38258;51.148;14.068;2023-06-14T11:46:31;98458.78;;;18.05;83.22
52319;BME280;38258;51.148;14.068;2023-06-14T11:48:59;98460.06;;;17.66;81.96
52319;BME280;38258;51.148;14.068;2023-06-14T11:51:28;98454.72;;;17.98;84.56
52319;BME280;38258;51.148;14.068;2023-06-14T11:53:55;98452.84;;;18.00;82.91
52319;BME280;38258;51.148;14.068;2023-06-14T11:56:22;98446.91;;;17.97;84.79
52319;BME280;38258;51.148;14.068;2023-06-14T11:58:49;98448.34;;;18.33;88.53
52319;BME280;38258;51.148;14.068;2023-06-14T12:01:16;98454.59;;;17.21;91.82
52319;BME280;38258;51.148;14.068;2023-06-14T12:03:47;98438.47;;;18.80;82.44
52319;BME280;38258;51.148;14.068;2023-06-14T12:06:16;98433.97;;;19.53;77.54
52319;BME280;38258;51.148;14.068;2023-06-14T12:08:44;98434.88;;;19.25;74.31
52319;BME280;38258;51.148;14.068;2023-06-14T12:11:11;98433.91;;;18.39;81.59
52319;BME280;38258;51.148;14.068;2023-06-14T12:13:39;98429.69;;;20.46;70.71
52319;BME280;38258;51.148;14.068;2023-06-14T12:16:07;98433.34;;;19.62;74.87
52319;BME280;38258;51.148;14.068;2023-06-14T12:18:34;98424.66;;;20.41;70.09
52319;BME280;38258;51.148;14.068;2023-06-14T12:21:03;98434.44;;;19.60;76.46
52319;BME280;38258;51.148;14.068;2023-06-14T12:23:47;98433.66;;;21.29;70.38
52319;BME280;38258;51.148;14.068;2023-06-14T12:26:14;98427.66;;;21.01;68.47
52319;BME280;38258;51.148;14.068;2023-06-14T12:28:42;98428.34;;;19.58;70.93
52319;BME280;38258;51.148;14.068;2023-06-14T12:31:11;98424.44;;;20.57;66.86
52319;BME280;38258;51.148;14.068;2023-06-14T12:33:38;98432.22;;;20.47;65.55
52319;BME280;38258;51.148;14.068;2023-06-14T12:36:07;98430.22;;;21.40;63.99
52319;BME280;38258;51.148;14.068;2023-06-14T12:38:34;98415.31;;;22.11;58.89
52319;BME280;38258;51.148;14.068;2023-06-14T12:41:02;98428.75;;;20.06;63.59
52319;BME280;38258;51.148;14.068;2023-06-14T12:43:29;98432.16;;;19.12;71.19
52319;BME280;38258;51.148;14.068;2023-06-14T12:45:56;98421.81;;;20.70;64.57
52319;BME280;38258;51.148;14.068;2023-06-14T12:48:22;98420.41;;;22.02;59.81
52319;BME280;38258;51.148;14.068;2023-06-14T12:50:49;98424.22;;;21.12;61.26
52319;BME280;38258;51.148;14.068;2023-06-14T12:53:16;98417.44;;;21.45;59.65